Time;durP1;ratioP1;P1;durP2;ratioP2;P2;SDS_P1;SDS_P2;PMS_P1;PMS_P2;Temp;Humidity;BMP_temperature;BMP_pressure;BME280_temperature;BME280_humidity;BME280_pressure;Samples;Min_cycle;Max_cycle;Signal;HPM_P1;HPM_P2
2024/01/24 00:02:06;;;;;;;3.37;1.60;;;9.30;98.00;;;;;;5035198;28;20476;-67
2024/01/24 00:04:34;;;;;;;3.97;1.50;;;9.30;98.00;;;;;;5035386;28;20456;-67
2024/01/24 00:07:01;;;;;;;1.40;1.20;;;9.30;98.00;;;;;;5034493;28;20451;-67
2024/01/24 00:09:32;;;;;;;1.93;1.43;;;9.30;98.00;;;;;;5035205;28;20462;-67
2024/01/24 00:11:59;;;;;;;2.27;1.50;;;9.40;98.00;;;;;;5052540;28;20451;-67
2024/01/24 00:14:27;;;;;;;3.83;1.70;;;9.40;98.00;;;;;;5052778;28;20555;-67
2024/01/24 00:16:54;;;;;;;2.80;1.40;;;9.50;98.00;;;;;;5052733;28;20459;-66
2024/01/24 00:19:21;;;;;;;2.90;1.57;;;9.50;98.00;;;;;;5052591;28;20451;-67
2024/01/24 00:21:48;;;;;;;3.83;1.53;;;9.50;98.00;;;;;;5034883;28;20460;-67
2024/01/24 00:24:16;;;;;;;2.17;1.33;;;9.50;98.00;;;;;;5052511;28;20451;-67
2024/01/24 00:26:44;;;;;;;7.30;1.47;;;9.50;98.00;;;;;;5034986;28;20509;-67
2024/01/24 00:29:12;;;;;;;3.03;1.40;;;9.60;98.00;;;;;;5052369;28;20534;-67
2024/01/24 00:31:39;;;;;;;5.17;1.60;;;9.60;98.00;;;;;;5052549;28;20454;-67
2024/01/24 00:34:06;;;;;;;4.43;1.80;;;9.60;98.00;;;;;;5052232;28;20457;-67
2024/01/24 00:36:33;;;;;;;4.20;1.70;;;9.70;98.00;;;;;;5052294;28;21013;-68
2024/01/24 00:39:01;;;;;;;1.50;1.37;;;9.60;98.00;;;;;;5052276;28;20496;-67
2024/01/24 00:41:28;;;;;;;1.23;1.17;;;9.70;98.00;;;;;;5052333;28;20932;-67
2024/01/24 00:43:56;;;;;;;1.90;1.40;;;9.70;98.00;;;;;;5052122;28;20494;-67
2024/01/24 00:46:23;;;;;;;1.70;1.30;;;9.70;98.00;;;;;;5052318;28;20454;-67
2024/01/24 00:48:50;;;;;;;3.30;1.70;;;9.80;98.00;;;;;;5052258;28;20463;-67
2024/01/24 00:51:17;;;;;;;3.00;1.30;;;9.80;98.00;;;;;;5052024;28;20455;-67
2024/01/24 00:53:50;;;;;;;2.37;1.30;;;9.80;98.00;;;;;;5052270;28;20506;-67
2024/01/24 00:56:18;;;;;;;2.27;1.40;;;9.80;98.00;;;;;;5052272;28;21016;-67
2024/01/24 00:58:45;;;;;;;3.20;1.20;;;9.90;98.00;;;;;;5052034;28;20977;-66
2024/01/24 01:01:13;;;;;;;4.30;1.30;;;9.90;98.00;;;;;;5051580;28;20451;-67
2024/01/24 01:03:42;;;;;;;1.63;1.30;;;9.80;98.00;;;;;;5051692;28;20454;-67
2024/01/24 01:06:10;;;;;;;2.80;1.50;;;9.80;98.00;;;;;;5051962;28;20450;-67
2024/01/24 01:08:37;;;;;;;4.60;1.30;;;9.80;98.00;;;;;;5052077;28;20450;-66
2024/01/24 01:11:05;;;;;;;1.70;1.30;;;9.70;98.00;;;;;;5051815;28;20463;-66
2024/01/24 01:13:33;;;;;;;1.80;1.20;;;9.80;98.00;;;;;;5051400;28;20453;-67
2024/01/24 01:16:00;;;;;;;2.03;1.30;;;9.80;98.00;;;;;;5051623;28;20990;-67
2024/01/24 01:18:28;;;;;;;5.20;1.50;;;9.90;98.00;;;;;;5055353;28;20816;-67
2024/01/24 01:20:56;;;;;;;4.47;1.60;;;9.90;98.00;;;;;;5055883;28;20522;-66
2024/01/24 01:23:23;;;;;;;3.00;1.43;;;9.90;98.00;;;;;;5055568;28;20448;-67
2024/01/24 01:25:51;;;;;;;2.23;1.40;;;9.90;98.00;;;;;;5055729;28;21019;-66
2024/01/24 01:28:19;;;;;;;1.77;1.20;;;9.90;98.00;;;;;;5055689;28;20462;-67
2024/01/24 01:30:46;;;;;;;1.60;1.30;;;10.00;98.00;;;;;;5055895;28;20450;-67
2024/01/24 01:33:13;;;;;;;5.07;1.47;;;10.00;98.00;;;;;;5055434;28;20970;-67
2024/01/24 01:35:41;;;;;;;2.93;1.33;;;10.00;98.00;;;;;;5055343;28;20477;-66
2024/01/24 01:38:08;;;;;;;2.90;1.67;;;10.00;98.00;;;;;;5054956;28;20511;-67
2024/01/24 01:40:38;;;;;;;2.63;1.20;;;10.00;98.00;;;;;;5037893;28;20945;-67
2024/01/24 01:43:11;;;;;;;3.37;1.40;;;10.00;98.00;;;;;;5055322;28;20464;-67
2024/01/24 01:45:41;;;;;;;2.70;1.40;;;10.00;98.00;;;;;;5055384;28;20489;-67
2024/01/24 01:48:09;;;;;;;2.27;1.27;;;10.10;98.00;;;;;;5055255;28;20448;-66
2024/01/24 01:50:41;;;;;;;4.43;1.60;;;10.20;98.00;;;;;;5055263;28;20479;-67
2024/01/24 01:53:09;;;;;;;2.50;1.40;;;10.30;98.00;;;;;;5055251;28;20454;-67
2024/01/24 01:55:37;;;;;;;1.33;1.27;;;10.30;98.00;;;;;;5055217;28;20496;-68
2024/01/24 01:58:05;;;;;;;1.60;1.20;;;10.20;98.00;;;;;;5055258;28;20450;-67
2024/01/24 02:00:33;;;;;;;1.30;1.10;;;10.20;98.00;;;;;;5037259;28;21004;-67
2024/01/24 02:03:01;;;;;;;3.60;1.30;;;10.20;98.00;;;;;;5055224;28;20459;-67
2024/01/24 02:05:28;;;;;;;3.43;1.30;;;10.20;98.00;;;;;;5055008;28;20458;-66
2024/01/24 02:07:57;;;;;;;2.17;1.33;;;10.30;98.00;;;;;;5055260;28;20923;-67
2024/01/24 02:10:25;;;;;;;3.20;1.27;;;10.30;98.00;;;;;;5037405;28;20453;-67
2024/01/24 02:12:52;;;;;;;2.07;1.20;;;10.20;98.00;;;;;;5054923;28;20459;-67
2024/01/24 02:15:20;;;;;;;1.90;1.27;;;10.20;98.00;;;;;;5054983;28;20449;-68
2024/01/24 02:17:47;;;;;;;4.17;1.70;;;10.20;98.00;;;;;;5055104;28;20457;-66
2024/01/24 02:20:14;;;;;;;1.57;1.30;;;10.20;98.00;;;;;;5054969;28;20943;-67
2024/01/24 02:22:41;;;;;;;2.93;1.60;;;10.20;98.00;;;;;;5054986;28;20460;-67
2024/01/24 02:25:10;;;;;;;5.90;1.40;;;10.30;98.00;;;;;;5054838;28;20458;-66
2024/01/24 02:27:37;;;;;;;1.60;1.30;;;10.40;98.00;;;;;;5053527;28;20446;-67
2024/01/24 02:30:05;;;;;;;2.50;1.20;;;10.50;98.00;;;;;;5054029;28;20591;-66
2024/01/24 02:32:32;;;;;;;2.80;1.40;;;10.50;98.00;;;;;;5054775;28;21038;-67
2024/01/24 02:34:59;;;;;;;1.80;1.23;;;10.50;98.00;;;;;;5054551;28;20452;-67
2024/01/24 02:37:26;;;;;;;1.50;1.40;;;10.50;98.00;;;;;;5054764;28;20478;-67
2024/01/24 02:39:53;;;;;;;3.37;1.30;;;10.50;98.00;;;;;;5054717;28;20454;-67
2024/01/24 02:42:22;;;;;;;2.57;1.30;;;10.40;98.00;;;;;;5054426;28;20969;-67
2024/01/24 02:44:48;;;;;;;1.60;1.17;;;10.50;98.00;;;;;;5054145;28;20456;-67
2024/01/24 02:47:21;;;;;;;4.80;1.43;;;10.50;98.00;;;;;;5054259;28;21044;-67
2024/01/24 02:49:49;;;;;;;5.17;1.40;;;10.40;98.00;;;;;;5053995;28;20506;-68
2024/01/24 02:52:16;;;;;;;3.50;1.87;;;10.50;98.00;;;;;;5053971;28;20450;-67
2024/01/24 02:54:43;;;;;;;5.67;1.43;;;10.50;98.00;;;;;;5054175;28;20453;-67
2024/01/24 02:57:10;;;;;;;1.33;1.20;;;10.50;98.00;;;;;;5054116;28;20491;-67
2024/01/24 02:59:40;;;;;;;1.60;1.33;;;10.60;98.00;;;;;;5053886;28;20450;-67
2024/01/24 03:02:07;;;;;;;1.90;1.30;;;10.50;98.00;;;;;;5053756;28;20468;-67
2024/01/24 03:04:34;;;;;;;3.20;1.40;;;10.60;98.00;;;;;;5053940;28;20866;-67
2024/01/24 03:07:01;;;;;;;1.40;1.20;;;10.50;98.00;;;;;;5053814;28;20461;-67
2024/01/24 03:09:28;;;;;;;2.30;1.50;;;10.50;98.00;;;;;;5053742;28;20446;-67
2024/01/24 03:11:55;;;;;;;1.30;1.20;;;10.60;98.00;;;;;;5053147;28;20466;-67
2024/01/24 03:14:24;;;;;;;2.43;1.40;;;10.70;98.00;;;;;;5053256;28;20461;-67
2024/01/24 03:16:53;;;;;;;2.33;1.23;;;10.60;98.00;;;;;;5052775;28;20544;-67
2024/01/24 03:19:20;;;;;;;4.30;1.50;;;10.70;98.00;;;;;;5035540;28;20465;-67
2024/01/24 03:21:47;;;;;;;2.63;1.20;;;10.70;98.00;;;;;;5053788;28;20505;-67
2024/01/24 03:24:15;;;;;;;2.53;1.40;;;10.70;98.00;;;;;;5053508;28;20453;-67
2024/01/24 03:26:42;;;;;;;2.03;1.47;;;10.70;98.00;;;;;;5053473;28;20471;-66
2024/01/24 03:29:09;;;;;;;3.10;1.50;;;10.80;98.00;;;;;;5053330;28;20457;-66
2024/01/24 03:31:36;;;;;;;3.17;1.40;;;10.80;98.00;;;;;;5053641;28;20801;-67
2024/01/24 03:34:05;;;;;;;2.30;1.43;;;10.90;98.00;;;;;;5052795;28;20461;-67
2024/01/24 03:36:32;;;;;;;1.60;1.40;;;11.00;98.00;;;;;;5053324;28;20990;-67
2024/01/24 03:38:59;;;;;;;1.30;1.20;;;11.00;98.00;;;;;;5053256;28;20944;-67
2024/01/24 03:41:26;;;;;;;4.43;1.80;;;10.90;98.00;;;;;;5052099;28;20468;-67
2024/01/24 03:43:53;;;;;;;2.73;1.40;;;11.00;98.00;;;;;;5053252;28;20600;-66
2024/01/24 03:46:20;;;;;;;5.27;1.30;;;11.10;98.00;;;;;;5053188;28;20507;-67
2024/01/24 03:48:47;;;;;;;1.53;1.50;;;11.10;98.00;;;;;;5052925;28;21002;-68
2024/01/24 03:51:16;;;;;;;2.83;1.40;;;11.20;98.00;;;;;;5051953;28;20459;-67
2024/01/24 03:53:43;;;;;;;1.57;1.40;;;11.20;98.00;;;;;;5052963;28;20453;-67
2024/01/24 03:56:10;;;;;;;4.40;1.60;;;11.20;98.00;;;;;;5052390;28;20489;-67
2024/01/24 03:58:37;;;;;;;1.40;1.30;;;11.30;98.00;;;;;;5052789;28;20935;-67
2024/01/24 04:01:05;;;;;;;3.73;1.43;;;11.30;98.00;;;;;;5052922;28;20973;-67
2024/01/24 04:03:32;;;;;;;3.00;1.40;;;11.40;98.00;;;;;;5034638;28;20466;-67
2024/01/24 04:05:59;;;;;;;1.97;1.30;;;11.40;98.00;;;;;;5052857;28;20949;-67
2024/01/24 04:08:28;;;;;;;1.57;1.30;;;11.40;98.00;;;;;;5052779;28;20938;-67
2024/01/24 04:10:54;;;;;;;3.10;1.43;;;11.40;98.00;;;;;;5052867;28;20459;-67
2024/01/24 04:13:22;;;;;;;2.90;1.43;;;11.50;98.00;;;;;;5052752;28;20459;-67
2024/01/24 04:15:49;;;;;;;2.10;1.50;;;11.60;98.00;;;;;;5052436;28;21023;-67
2024/01/24 04:18:16;;;;;;;3.63;1.60;;;11.60;98.00;;;;;;5035029;28;20467;-67
2024/01/24 04:20:43;;;;;;;1.77;1.40;;;11.60;98.00;;;;;;5052640;28;20473;-68
2024/01/24 04:23:10;;;;;;;1.90;1.40;;;11.60;98.00;;;;;;5052819;28;20963;-67
2024/01/24 04:25:38;;;;;;;2.47;1.57;;;11.70;98.00;;;;;;5052718;28;20974;-67
2024/01/24 04:28:09;;;;;;;2.07;1.40;;;11.70;98.00;;;;;;5052531;28;20476;-66
2024/01/24 04:30:36;;;;;;;4.60;1.63;;;11.70;98.00;;;;;;5052688;28;20814;-67
2024/01/24 04:33:03;;;;;;;1.83;1.47;;;11.80;98.00;;;;;;5052602;28;20506;-67
2024/01/24 04:35:31;;;;;;;3.83;1.53;;;11.80;98.00;;;;;;5052611;28;21011;-67
2024/01/24 04:38:06;;;;;;;2.23;1.57;;;11.70;98.00;;;;;;5052508;28;20482;-67
2024/01/24 04:40:33;;;;;;;2.13;1.40;;;11.80;98.00;;;;;;5052451;28;20462;-66
2024/01/24 04:43:01;;;;;;;5.20;1.87;;;11.80;98.00;;;;;;5052142;28;20953;-66
2024/01/24 04:45:28;;;;;;;5.80;1.87;;;11.80;98.00;;;;;;5051867;28;20528;-67
2024/01/24 04:47:56;;;;;;;2.03;1.40;;;11.80;98.00;;;;;;5051995;28;20471;-68
2024/01/24 04:50:24;;;;;;;3.93;1.50;;;11.90;98.00;;;;;;5051998;28;20441;-67
2024/01/24 04:52:51;;;;;;;1.73;1.40;;;11.80;98.00;;;;;;5036797;28;20443;-67
2024/01/24 04:55:26;;;;;;;2.50;1.50;;;11.90;98.00;;;;;;5032027;28;20450;-67
2024/01/24 04:57:53;;;;;;;4.03;1.77;;;11.90;98.00;;;;;;5031746;28;20478;-67
2024/01/24 05:00:21;;;;;;;3.60;1.50;;;11.90;98.00;;;;;;5032074;28;20451;-67
2024/01/24 05:02:48;;;;;;;2.63;1.40;;;12.00;98.00;;;;;;5031756;28;20462;-67
2024/01/24 05:05:16;;;;;;;3.70;1.80;;;12.00;98.00;;;;;;5030662;28;20454;-66
2024/01/24 05:07:45;;;;;;;5.20;1.70;;;12.00;98.00;;;;;;5031923;28;20462;-66
2024/01/24 05:10:14;;;;;;;3.27;1.60;;;12.00;98.00;;;;;;5030266;28;20852;-66
2024/01/24 05:12:41;;;;;;;2.60;1.57;;;12.00;98.00;;;;;;5031726;28;20459;-67
2024/01/24 05:15:09;;;;;;;1.97;1.70;;;12.00;98.00;;;;;;5031612;28;20457;-67
2024/01/24 05:17:38;;;;;;;4.03;1.70;;;12.00;98.00;;;;;;5031810;28;20515;-66
2024/01/24 05:20:10;;;;;;;2.13;1.60;;;12.00;98.00;;;;;;5031679;28;20520;-67
2024/01/24 05:22:37;;;;;;;4.07;1.80;;;11.90;98.00;;;;;;5031754;28;20469;-67
2024/01/24 05:25:05;;;;;;;4.57;1.60;;;12.00;98.00;;;;;;5031852;28;20454;-66
2024/01/24 05:27:32;;;;;;;4.77;1.80;;;12.00;98.00;;;;;;5030419;28;20851;-67
2024/01/24 05:30:03;;;;;;;1.83;1.50;;;12.00;98.00;;;;;;5031685;28;20446;-67
2024/01/24 05:32:31;;;;;;;2.27;1.60;;;12.00;98.00;;;;;;5031744;28;20523;-67
2024/01/24 05:35:02;;;;;;;4.03;1.63;;;12.00;98.00;;;;;;5031810;28;20450;-67
2024/01/24 05:37:29;;;;;;;1.90;1.40;;;12.00;98.00;;;;;;5031737;28;20486;-67
2024/01/24 05:39:58;;;;;;;3.33;1.80;;;12.00;98.00;;;;;;5031559;28;20464;-67
2024/01/24 05:42:25;;;;;;;3.77;1.60;;;12.10;98.00;;;;;;5031837;28;20459;-67
2024/01/24 05:44:52;;;;;;;2.63;1.60;;;12.10;98.00;;;;;;5031634;28;20502;-67
2024/01/24 05:47:19;;;;;;;3.80;1.40;;;12.00;98.00;;;;;;5030316;28;20465;-67
2024/01/24 05:49:47;;;;;;;2.57;2.10;;;12.10;98.00;;;;;;5031610;28;20936;-67
2024/01/24 05:52:17;;;;;;;4.60;1.83;;;12.10;98.00;;;;;;5031695;28;20460;-67
2024/01/24 05:54:44;;;;;;;2.90;1.80;;;12.10;98.00;;;;;;5031418;28;20446;-67
2024/01/24 05:57:15;;;;;;;2.87;1.70;;;12.10;98.00;;;;;;5031508;28;20483;-67
2024/01/24 05:59:42;;;;;;;1.83;1.40;;;12.20;98.00;;;;;;5031339;28;20888;-67
2024/01/24 06:02:09;;;;;;;4.27;1.53;;;12.20;98.00;;;;;;5030360;28;20519;-67
2024/01/24 06:04:36;;;;;;;2.50;1.87;;;12.20;98.00;;;;;;5033136;28;20462;-67
2024/01/24 06:07:03;;;;;;;3.07;1.80;;;12.30;98.00;;;;;;5035196;28;20449;-67
2024/01/24 06:09:33;;;;;;;1.83;1.40;;;12.40;98.00;;;;;;5035494;28;20455;-66
2024/01/24 06:12:01;;;;;;;6.07;2.37;;;12.40;98.00;;;;;;5033664;28;20941;-67
2024/01/24 06:14:28;;;;;;;4.67;2.00;;;12.50;98.00;;;;;;5035195;28;20482;-67
2024/01/24 06:16:55;;;;;;;2.57;1.57;;;12.50;98.00;;;;;;5033705;28;20463;-67
2024/01/24 06:19:22;;;;;;;3.53;1.53;;;12.40;98.00;;;;;;5035024;28;20473;-68
2024/01/24 06:21:49;;;;;;;2.50;1.53;;;12.40;98.00;;;;;;5035347;28;20466;-67
2024/01/24 06:24:17;;;;;;;3.53;1.80;;;12.50;98.00;;;;;;5034987;28;20878;-67
2024/01/24 06:26:45;;;;;;;2.07;1.63;;;12.50;98.00;;;;;;5035143;28;20455;-68
2024/01/24 06:29:13;;;;;;;3.77;1.50;;;12.60;98.00;;;;;;5034882;28;20934;-67
2024/01/24 06:31:40;;;;;;;2.90;1.47;;;12.60;98.00;;;;;;5034668;28;20942;-67
2024/01/24 06:34:08;;;;;;;2.90;1.90;;;12.60;98.00;;;;;;5033261;28;20458;-68
2024/01/24 06:36:35;;;;;;;2.10;1.43;;;12.60;98.00;;;;;;5034758;28;20875;-67
2024/01/24 06:39:02;;;;;;;2.60;1.47;;;12.60;98.00;;;;;;5034727;28;20464;-67
2024/01/24 06:41:30;;;;;;;2.20;1.70;;;12.60;98.00;;;;;;5034616;28;20462;-66
2024/01/24 06:43:59;;;;;;;2.43;1.33;;;12.60;98.00;;;;;;5034199;28;20550;-68
2024/01/24 06:46:27;;;;;;;5.43;1.60;;;12.70;98.00;;;;;;5034395;28;20458;-67
2024/01/24 06:48:54;;;;;;;1.80;1.40;;;12.70;98.00;;;;;;5034236;28;20529;-68
2024/01/24 06:51:21;;;;;;;4.13;1.40;;;12.80;98.00;;;;;;5034367;28;20457;-67
2024/01/24 06:53:49;;;;;;;2.20;1.83;;;12.80;98.00;;;;;;5034163;28;20464;-66
2024/01/24 06:56:17;;;;;;;3.10;1.90;;;12.70;98.00;;;;;;5034158;28;20464;-67
2024/01/24 06:58:44;;;;;;;10.33;1.80;;;12.80;98.00;;;;;;5033991;28;20875;-67
2024/01/24 07:01:13;;;;;;;2.33;1.60;;;12.80;98.00;;;;;;5034229;28;20447;-62
2024/01/24 07:03:40;;;;;;;4.57;1.50;;;12.80;98.00;;;;;;5033580;28;20451;-62
2024/01/24 07:06:08;;;;;;;2.10;1.60;;;12.80;98.00;;;;;;5032777;28;20451;-62
2024/01/24 07:08:34;;;;;;;2.37;1.50;;;12.80;98.00;;;;;;5034148;28;20458;-62
2024/01/24 07:11:02;;;;;;;3.80;1.70;;;12.70;98.00;;;;;;5033900;28;20452;-62
2024/01/24 07:13:29;;;;;;;2.70;1.50;;;12.70;98.00;;;;;;5033683;28;20463;-62
2024/01/24 07:16:04;;;;;;;2.83;1.63;;;12.60;98.00;;;;;;5033433;28;20467;-62
2024/01/24 07:18:32;;;;;;;2.37;1.60;;;12.50;98.00;;;;;;5033831;28;20534;-62
2024/01/24 07:21:00;;;;;;;1.40;1.30;;;12.50;98.00;;;;;;5033754;28;20950;-62
2024/01/24 07:23:27;;;;;;;1.90;1.50;;;12.50;98.00;;;;;;5033980;28;20444;-62
2024/01/24 07:25:54;;;;;;;3.80;1.57;;;12.50;98.00;;;;;;5033574;28;20456;-62
2024/01/24 07:28:23;;;;;;;2.03;1.50;;;12.50;98.00;;;;;;5033777;28;20937;-62
2024/01/24 07:30:50;;;;;;;2.33;1.53;;;12.60;98.00;;;;;;5032254;28;20511;-62
2024/01/24 07:33:18;;;;;;;2.27;1.60;;;12.70;98.00;;;;;;5033699;28;20460;-62
2024/01/24 07:35:46;;;;;;;6.63;1.90;;;12.70;98.00;;;;;;5033287;28;20456;-62
2024/01/24 07:38:14;;;;;;;3.47;1.70;;;12.80;98.00;;;;;;5033457;28;20491;-62
2024/01/24 07:40:46;;;;;;;1.60;1.40;;;12.80;98.00;;;;;;5033490;28;20456;-62
2024/01/24 07:43:14;;;;;;;2.70;1.70;;;12.90;98.00;;;;;;5033466;28;20443;-62
2024/01/24 07:45:42;;;;;;;2.30;1.70;;;13.00;98.00;;;;;;5032157;28;20454;-62
2024/01/24 07:48:13;;;;;;;7.63;1.70;;;13.00;98.00;;;;;;5032260;28;20456;-62
2024/01/24 07:50:42;;;;;;;1.60;1.40;;;13.00;98.00;;;;;;5033356;28;20499;-62
2024/01/24 07:53:11;;;;;;;3.77;1.30;;;13.10;98.00;;;;;;5033259;28;20546;-62
2024/01/24 07:55:41;;;;;;;2.37;1.80;;;13.20;98.00;;;;;;5033177;28;20455;-62
2024/01/24 07:58:08;;;;;;;3.43;1.73;;;13.20;98.00;;;;;;5031609;28;20853;-62
2024/01/24 08:00:35;;;;;;;2.77;1.43;;;13.10;98.00;;;;;;5033291;28;20544;-62
2024/01/24 08:03:02;;;;;;;2.17;1.60;;;13.20;98.00;;;;;;5033105;28;20979;-63
2024/01/24 08:05:32;;;;;;;2.27;1.40;;;13.20;98.00;;;;;;5033000;28;20441;-63
2024/01/24 08:07:59;;;;;;;1.97;1.50;;;13.30;98.00;;;;;;5033051;28;20896;-63
2024/01/24 08:10:27;;;;;;;2.03;1.33;;;13.30;98.00;;;;;;5032902;28;20463;-63
2024/01/24 08:12:54;;;;;;;4.17;1.60;;;13.40;98.00;;;;;;5032816;28;20471;-63
2024/01/24 08:15:22;;;;;;;2.43;1.50;;;13.40;98.00;;;;;;5032845;28;20490;-63
2024/01/24 08:17:49;;;;;;;1.77;1.33;;;13.50;98.00;;;;;;5032635;28;20485;-63
2024/01/24 08:20:19;;;;;;;2.40;1.40;;;13.50;98.00;;;;;;5032231;28;20459;-63
2024/01/24 08:22:46;;;;;;;1.40;1.30;;;13.60;98.00;;;;;;5031941;28;20451;-62
2024/01/24 08:25:13;;;;;;;1.80;1.40;;;13.60;98.00;;;;;;5032184;28;20448;-62
2024/01/24 08:27:42;;;;;;;4.40;1.33;;;13.60;98.00;;;;;;5031973;28;20441;-62
2024/01/24 08:30:12;;;;;;;3.20;1.33;;;13.60;98.00;;;;;;5032436;28;20463;-62
2024/01/24 08:32:41;;;;;;;2.30;1.30;;;13.60;98.00;;;;;;5032385;28;20531;-63
2024/01/24 08:35:09;;;;;;;1.43;1.33;;;13.70;98.00;;;;;;5032266;28;20511;-62
2024/01/24 08:37:36;;;;;;;1.60;1.30;;;13.70;98.00;;;;;;5032385;28;20482;-62
2024/01/24 08:40:03;;;;;;;2.03;1.20;;;13.70;98.00;;;;;;5032295;28;20475;-62
2024/01/24 08:42:30;;;;;;;3.17;1.50;;;13.70;98.00;;;;;;5032282;28;20453;-62
2024/01/24 08:44:59;;;;;;;1.30;1.20;;;13.70;98.00;;;;;;5032128;28;20818;-63
2024/01/24 08:47:26;;;;;;;1.40;1.20;;;13.70;98.00;;;;;;5032245;28;20923;-62
2024/01/24 08:49:56;;;;;;;2.40;1.53;;;13.70;98.00;;;;;;5032119;28;20579;-62
2024/01/24 08:52:23;;;;;;;1.53;1.20;;;13.70;98.00;;;;;;5031608;28;20455;-62
2024/01/24 08:54:50;;;;;;;1.40;1.23;;;13.70;98.00;;;;;;5030814;28;20456;-62
2024/01/24 08:57:17;;;;;;;1.20;1.00;;;13.80;98.00;;;;;;5031414;28;20486;-63
2024/01/24 08:59:45;;;;;;;1.50;1.40;;;13.80;98.00;;;;;;5031843;28;20468;-63
2024/01/24 09:02:13;;;;;;;1.80;1.30;;;13.80;98.00;;;;;;5031286;28;20959;-63
2024/01/24 09:04:40;;;;;;;1.63;1.30;;;13.80;98.00;;;;;;5043341;28;20463;-63
2024/01/24 09:07:08;;;;;;;1.47;1.20;;;13.90;98.00;;;;;;5051795;28;20472;-63
2024/01/24 09:09:35;;;;;;;3.20;1.30;;;13.90;98.00;;;;;;5051485;28;20467;-62
2024/01/24 09:12:02;;;;;;;1.40;1.10;;;13.90;98.00;;;;;;5033804;28;20512;-63
2024/01/24 09:14:29;;;;;;;1.40;1.20;;;13.90;98.00;;;;;;5051640;28;20448;-62
2024/01/24 09:16:56;;;;;;;1.20;1.10;;;13.90;98.00;;;;;;5051565;28;20950;-62
2024/01/24 09:19:26;;;;;;;1.23;1.13;;;13.90;98.00;;;;;;5034842;28;20500;-62
2024/01/24 09:21:53;;;;;;;1.30;1.20;;;13.90;98.00;;;;;;5031605;28;20451;-62
2024/01/24 09:24:20;;;;;;;1.87;1.20;;;13.90;98.00;;;;;;5031388;28;20798;-62
2024/01/24 09:26:47;;;;;;;1.40;1.13;;;13.90;98.00;;;;;;5031696;28;20802;-63
2024/01/24 09:29:14;;;;;;;1.30;1.10;;;13.90;98.00;;;;;;5030936;28;20478;-63
2024/01/24 09:31:45;;;;;;;1.30;1.10;;;13.90;98.00;;;;;;5031678;28;20446;-63
2024/01/24 09:34:12;;;;;;;1.30;1.10;;;14.00;98.00;;;;;;5031639;28;20476;-63
2024/01/24 09:36:41;;;;;;;1.73;1.30;;;14.00;98.00;;;;;;5031744;28;20468;-62
2024/01/24 09:39:09;;;;;;;1.40;1.20;;;14.00;98.00;;;;;;5032508;28;20482;-63
2024/01/24 09:41:42;;;;;;;1.30;1.10;;;14.10;98.00;;;;;;5035553;28;20518;-62
2024/01/24 09:44:11;;;;;;;1.93;1.20;;;14.10;98.00;;;;;;5035540;28;20455;-63
2024/01/24 09:46:40;;;;;;;1.20;1.10;;;14.00;98.00;;;;;;5035686;28;20459;-62
2024/01/24 09:49:12;;;;;;;1.40;1.10;;;14.10;98.00;;;;;;5035135;28;20453;-63
2024/01/24 09:51:41;;;;;;;1.70;1.20;;;14.20;98.00;;;;;;5035458;28;20464;-63
2024/01/24 09:54:09;;;;;;;1.60;1.30;;;14.10;98.00;;;;;;5035223;28;20879;-62
2024/01/24 09:56:38;;;;;;;1.77;1.20;;;14.10;98.00;;;;;;5035437;28;20480;-63
2024/01/24 09:59:07;;;;;;;1.40;1.20;;;14.00;98.00;;;;;;5035064;28;20495;-62
2024/01/24 10:01:35;;;;;;;1.30;1.10;;;14.00;98.00;;;;;;5035560;28;20465;-62
2024/01/24 10:04:03;;;;;;;1.70;1.20;;;14.00;98.00;;;;;;5035297;28;20851;-63
2024/01/24 10:06:30;;;;;;;1.50;1.30;;;13.90;98.00;;;;;;5035100;28;20459;-63
2024/01/24 10:08:59;;;;;;;1.23;1.07;;;13.90;98.00;;;;;;5017062;28;20454;-63
2024/01/24 10:11:27;;;;;;;1.20;1.00;;;13.90;98.00;;;;;;5044268;28;20455;-63
2024/01/24 10:13:57;;;;;;;1.30;1.10;;;14.00;98.00;;;;;;5034817;28;20484;-63
2024/01/24 10:16:24;;;;;;;1.20;1.10;;;14.00;98.00;;;;;;5034346;28;21248;-63
2024/01/24 10:18:51;;;;;;;1.20;1.03;;;14.10;98.00;;;;;;5034750;28;20961;-62
2024/01/24 10:21:18;;;;;;;1.20;1.10;;;14.20;98.00;;;;;;5034459;28;20460;-63
2024/01/24 10:23:46;;;;;;;1.30;1.20;;;14.30;98.00;;;;;;5034548;28;20457;-63
2024/01/24 10:26:15;;;;;;;1.27;1.10;;;14.30;98.00;;;;;;5034450;28;20449;-63
2024/01/24 10:28:43;;;;;;;1.20;1.10;;;14.30;98.00;;;;;;5033784;28;20456;-62
2024/01/24 10:31:11;;;;;;;1.30;1.20;;;14.40;98.00;;;;;;5034157;28;20490;-62
2024/01/24 10:33:39;;;;;;;1.50;1.27;;;14.40;98.00;;;;;;5034148;28;20451;-62
2024/01/24 10:36:09;;;;;;;1.20;1.10;;;14.40;98.00;;;;;;5033580;28;20545;-62
2024/01/24 10:38:41;;;;;;;1.80;1.20;;;14.30;98.00;;;;;;5015681;28;20481;-62
2024/01/24 10:41:13;;;;;;;1.40;1.20;;;14.30;98.00;;;;;;5016147;28;20465;-62
2024/01/24 10:43:51;;;;;;;1.77;1.10;;;14.40;98.00;;;;;;5033659;28;20490;-62
2024/01/24 10:46:18;;;;;;;2.53;1.30;;;14.40;98.00;;;;;;5033504;28;20451;-62
2024/01/24 10:48:45;;;;;;;1.30;1.10;;;14.40;98.00;;;;;;5033645;28;20449;-62
2024/01/24 10:51:13;;;;;;;1.20;1.13;;;14.40;98.00;;;;;;5015368;28;20552;-62
2024/01/24 10:53:41;;;;;;;1.30;1.20;;;14.40;98.00;;;;;;5032886;28;20465;-62
2024/01/24 10:56:09;;;;;;;1.33;1.20;;;14.30;98.00;;;;;;5043889;28;20449;-62
2024/01/24 10:58:38;;;;;;;1.50;1.20;;;14.20;98.00;;;;;;5051267;28;21005;-62
2024/01/24 11:01:07;;;;;;;1.57;1.20;;;14.10;98.00;;;;;;5033796;28;20489;-62
2024/01/24 11:03:35;;;;;;;1.83;1.20;;;14.00;98.00;;;;;;5034143;28;20790;-62
2024/01/24 11:06:06;;;;;;;1.70;1.10;;;14.00;98.00;;;;;;5034030;28;20465;-62
2024/01/24 11:08:40;;;;;;;1.40;1.10;;;14.00;98.00;;;;;;5033974;28;20457;-62
2024/01/24 11:11:13;;;;;;;1.30;1.13;;;14.00;98.00;;;;;;5018949;28;20488;-62
2024/01/24 11:13:41;;;;;;;1.40;1.20;;;14.10;98.00;;;;;;5013973;28;20592;-62
2024/01/24 11:16:31;;;;;;;2.53;1.20;;;14.00;98.00;;;;;;5033251;28;20504;-62
2024/01/24 11:19:20;;;;;;;1.83;1.10;;;14.00;98.00;;;;;;5033702;28;20529;-62
2024/01/24 11:21:48;;;;;;;1.37;1.20;;;14.00;98.00;;;;;;5033746;28;20475;-62
2024/01/24 11:24:43;;;;;;;1.40;1.13;;;14.10;98.00;;;;;;5033595;28;20515;-62
2024/01/24 11:27:25;;;;;;;1.90;1.30;;;14.00;98.00;;;;;;5033518;28;20464;-62
2024/01/24 11:29:53;;;;;;;1.83;1.40;;;13.80;98.00;;;;;;5032525;28;20514;-62
2024/01/24 11:32:50;;;;;;;1.20;1.17;;;13.60;98.00;;;;;;5033681;28;20459;-62
2024/01/24 11:35:29;;;;;;;1.30;1.20;;;13.40;98.00;;;;;;5028823;28;20551;-62
2024/01/24 11:37:56;;;;;;;1.20;1.10;;;13.40;98.00;;;;;;5033448;28;20468;-62
2024/01/24 11:40:24;;;;;;;1.20;1.10;;;13.30;98.00;;;;;;5032325;28;20577;-62
2024/01/24 11:42:54;;;;;;;2.13;1.20;;;13.20;98.00;;;;;;5033764;28;20546;-62
2024/01/24 11:45:22;;;;;;;1.20;1.20;;;13.20;98.00;;;;;;5033824;28;20471;-62
2024/01/24 11:47:49;;;;;;;2.83;1.20;;;13.10;98.00;;;;;;5033630;28;20452;-62
2024/01/24 11:50:17;;;;;;;1.20;1.03;;;13.00;98.00;;;;;;5032999;28;20978;-62
2024/01/24 11:52:45;;;;;;;1.10;1.10;;;12.90;98.00;;;;;;5032757;28;20454;-62
2024/01/24 11:55:13;;;;;;;1.20;1.10;;;12.80;98.00;;;;;;5032860;28;20459;-62
2024/01/24 11:57:40;;;;;;;1.67;1.20;;;12.80;98.00;;;;;;5032624;28;20458;-62
2024/01/24 12:00:11;;;;;;;1.20;1.10;;;12.90;98.00;;;;;;5032307;28;21049;-62
2024/01/24 12:02:38;;;;;;;2.37;1.20;;;12.90;98.00;;;;;;5031501;28;20495;-62
2024/01/24 12:05:06;;;;;;;1.20;1.10;;;12.90;98.00;;;;;;5032297;28;20466;-62
2024/01/24 12:07:34;;;;;;;1.50;1.30;;;13.00;98.00;;;;;;5031186;28;20463;-62
2024/01/24 12:10:07;;;;;;;2.03;1.50;;;13.20;98.00;;;;;;5032231;28;20955;-62
2024/01/24 12:12:35;;;;;;;2.60;1.50;;;13.30;98.00;;;;;;5032050;28;20462;-62
2024/01/24 12:15:02;;;;;;;2.90;1.40;;;13.20;98.00;;;;;;5030813;28;20878;-62
2024/01/24 12:17:29;;;;;;;1.43;1.30;;;13.20;98.00;;;;;;5032149;28;20519;-62
2024/01/24 12:19:59;;;;;;;1.40;1.30;;;13.10;98.00;;;;;;5031722;28;20613;-62
2024/01/24 12:22:29;;;;;;;1.40;1.27;;;13.10;98.00;;;;;;5031948;28;20446;-62
2024/01/24 12:24:56;;;;;;;2.93;1.40;;;13.10;98.00;;;;;;5031480;28;20458;-62
2024/01/24 12:27:26;;;;;;;2.00;1.30;;;13.20;98.00;;;;;;5031402;28;20849;-62
2024/01/24 12:29:54;;;;;;;1.77;1.33;;;13.20;98.00;;;;;;5031657;28;20478;-62
2024/01/24 12:32:22;;;;;;;1.50;1.20;;;13.10;98.00;;;;;;5030398;28;20545;-62
2024/01/24 12:34:53;;;;;;;2.13;1.20;;;13.10;98.00;;;;;;5031507;28;21018;-62
2024/01/24 12:37:22;;;;;;;2.77;1.23;;;13.10;98.00;;;;;;5031749;28;20786;-62
2024/01/24 12:39:53;;;;;;;2.60;1.27;;;13.00;98.00;;;;;;5031442;28;21127;-62
2024/01/24 12:42:20;;;;;;;1.40;1.30;;;12.90;98.00;;;;;;5031611;28;20942;-62
2024/01/24 12:44:54;;;;;;;1.40;1.30;;;12.90;98.00;;;;;;5031480;28;20454;-62
2024/01/24 12:47:23;;;;;;;2.73;1.50;;;13.00;98.00;;;;;;5031715;28;20513;-62
2024/01/24 12:49:50;;;;;;;2.13;1.43;;;13.00;98.00;;;;;;5111876;22;20489;-85
2024/01/24 12:52:17;;;;;;;1.67;1.17;;;13.00;98.00;;;;;;5036291;28;20458;-86
2024/01/24 12:54:44;;;;;;;2.43;1.40;;;12.90;98.00;;;;;;5035331;28;20462;-86